Time;durP1;ratioP1;P1;durP2;ratioP2;P2;SDS_P1;SDS_P2;PMS_P1;PMS_P2;Temp;Humidity;BMP_temperature;BMP_pressure;BME280_temperature;BME280_humidity;BME280_pressure;Samples;Min_cycle;Max_cycle;Signal;HPM_P1;HPM_P2
2023/11/16 00:00:17;;;;;;;0.30;0.30;;;9.30;1.00;;;;;;5039173;28;20375;-75
2023/11/16 00:02:43;;;;;;;0.65;0.65;;;9.30;1.00;;;;;;5046117;28;20044;-75
2023/11/16 00:05:16;;;;;;;0.20;0.20;;;9.30;1.00;;;;;;5043075;28;20032;-75
2023/11/16 00:07:46;;;;;;;0.60;0.60;;;9.20;1.00;;;;;;5039016;28;20025;-76
2023/11/16 00:10:16;;;;;;;0.67;0.67;;;9.20;1.00;;;;;;5038496;28;20092;-75
2023/11/16 00:12:42;;;;;;;0.15;0.15;;;9.20;1.00;;;;;;5041384;28;20044;-75
2023/11/16 00:15:09;;;;;;;0.47;0.40;;;9.20;1.00;;;;;;5041507;28;20048;-74
2023/11/16 00:17:38;;;;;;;0.30;0.30;;;9.20;1.00;;;;;;5037199;28;20040;-74
2023/11/16 00:20:13;;;;;;;0.52;0.15;;;9.10;1.00;;;;;;5043129;28;20036;-74
2023/11/16 00:22:39;;;;;;;0.28;0.28;;;9.00;1.00;;;;;;5039377;28;20033;-73
2023/11/16 00:25:06;;;;;;;3.05;1.20;;;9.00;1.00;;;;;;5040806;28;20025;-73
2023/11/16 00:27:36;;;;;;;0.10;0.10;;;8.90;1.00;;;;;;5044822;28;20040;-74
2023/11/16 00:30:03;;;;;;;1.38;0.63;;;8.80;1.00;;;;;;5027970;28;20048;-73
2023/11/16 00:32:29;;;;;;;0.28;0.28;;;8.70;1.00;;;;;;5035579;28;20049;-73
2023/11/16 00:34:55;;;;;;;0.10;0.10;;;8.70;1.00;;;;;;5040545;28;20029;-73
2023/11/16 00:37:22;;;;;;;1.15;0.80;;;8.80;1.00;;;;;;5020983;28;20068;-75
2023/11/16 00:39:48;;;;;;;1.13;1.02;;;8.80;1.00;;;;;;5046665;28;20044;-73
2023/11/16 00:42:17;;;;;;;9.75;0.82;;;8.80;1.00;;;;;;5021013;28;20049;-74
2023/11/16 00:44:43;;;;;;;0.32;0.32;;;8.80;1.00;;;;;;5042976;28;20033;-74
2023/11/16 00:47:09;;;;;;;1.15;0.52;;;8.70;1.00;;;;;;5037669;28;20046;-72
2023/11/16 00:49:36;;;;;;;0.22;0.22;;;8.70;1.00;;;;;;5023728;28;20147;-74
2023/11/16 00:52:04;;;;;;;0.20;0.20;;;8.70;1.00;;;;;;5042603;28;20382;-75
2023/11/16 00:54:30;;;;;;;0.17;0.17;;;8.70;1.00;;;;;;5041180;28;20040;-75
2023/11/16 00:56:57;;;;;;;0.50;0.50;;;8.60;1.00;;;;;;5040795;28;20036;-75
2023/11/16 00:59:23;;;;;;;1.25;1.20;;;8.60;1.00;;;;;;5026070;28;20044;-75
2023/11/16 01:01:50;;;;;;;0.43;0.43;;;8.50;1.00;;;;;;5039868;28;20029;-73
2023/11/16 01:04:17;;;;;;;0.55;0.55;;;8.40;1.00;;;;;;5037055;28;20048;-73
2023/11/16 01:06:45;;;;;;;0.70;0.35;;;8.40;1.00;;;;;;5042200;28;20040;-74
2023/11/16 01:09:12;;;;;;;1.02;0.70;;;8.20;1.00;;;;;;5021829;28;20056;-74
2023/11/16 01:11:39;;;;;;;1.45;0.47;;;8.10;1.00;;;;;;5038517;28;20478;-74
2023/11/16 01:14:05;;;;;;;0.47;0.47;;;8.00;1.00;;;;;;5041566;28;20049;-73
2023/11/16 01:16:41;;;;;;;0.75;0.60;;;8.00;1.00;;;;;;5039657;28;20040;-73
2023/11/16 01:19:08;;;;;;;0.45;0.45;;;7.90;1.00;;;;;;5040751;28;20036;-74
2023/11/16 01:21:41;;;;;;;0.63;0.28;;;7.90;1.00;;;;;;5043963;28;20045;-73
2023/11/16 01:24:08;;;;;;;0.10;0.10;;;7.80;1.00;;;;;;5037732;28;20029;-74
2023/11/16 01:26:36;;;;;;;0.68;0.30;;;7.70;1.00;;;;;;5021213;28;20048;-74
2023/11/16 01:29:06;;;;;;;0.85;0.40;;;7.70;1.00;;;;;;5040711;28;20033;-74
2023/11/16 01:31:32;;;;;;;0.50;0.50;;;7.70;1.00;;;;;;5046112;28;20029;-74
2023/11/16 01:33:58;;;;;;;0.30;0.30;;;7.70;1.00;;;;;;5042409;28;20272;-75
2023/11/16 01:36:26;;;;;;;0.85;0.52;;;7.70;1.00;;;;;;5042081;28;20501;-77
2023/11/16 01:38:53;;;;;;;0.25;0.25;;;7.70;1.00;;;;;;5042866;28;20033;-74
2023/11/16 01:41:19;;;;;;;0.10;0.10;;;7.80;1.00;;;;;;5041027;28;20033;-74
2023/11/16 01:43:46;;;;;;;0.65;0.43;;;7.90;1.00;;;;;;5042558;28;20034;-74
2023/11/16 01:46:15;;;;;;;1.05;0.55;;;7.90;1.00;;;;;;5039038;28;20030;-75
2023/11/16 01:48:45;;;;;;;0.20;0.20;;;7.90;1.00;;;;;;5042998;28;20044;-75
2023/11/16 01:51:14;;;;;;;0.10;0.10;;;7.90;1.00;;;;;;5040976;28;20044;-74
2023/11/16 01:53:50;;;;;;;2.63;1.27;;;8.00;1.00;;;;;;5026264;28;20029;-74
2023/11/16 01:56:16;;;;;;;0.20;0.20;;;8.00;1.00;;;;;;5029593;28;20033;-75
2023/11/16 01:58:49;;;;;;;0.10;0.10;;;8.10;1.00;;;;;;5024884;28;20041;-74
2023/11/16 02:01:16;;;;;;;0.13;0.13;;;8.10;1.00;;;;;;5049033;28;20052;-74
2023/11/16 02:03:45;;;;;;;1.55;0.98;;;8.10;1.00;;;;;;5044551;28;20045;-74
2023/11/16 02:06:12;;;;;;;1.17;0.98;;;8.20;1.00;;;;;;5041955;28;20040;-74
2023/11/16 02:08:39;;;;;;;0.28;0.28;;;8.20;1.00;;;;;;5042794;28;20474;-74
2023/11/16 02:11:06;;;;;;;1.10;0.90;;;8.20;1.00;;;;;;5032755;28;20049;-74
2023/11/16 02:13:32;;;;;;;0.15;0.15;;;8.30;1.00;;;;;;5032028;28;20041;-75
2023/11/16 02:15:59;;;;;;;0.20;0.20;;;8.30;1.00;;;;;;5028647;28;20052;-75
2023/11/16 02:18:26;;;;;;;0.13;0.13;;;8.30;1.00;;;;;;5042555;28;20029;-75
2023/11/16 02:20:55;;;;;;;0.45;0.43;;;8.30;1.00;;;;;;5042387;28;20048;-75
2023/11/16 02:23:22;;;;;;;0.52;0.40;;;8.30;1.00;;;;;;5027710;28;20064;-75
2023/11/16 02:25:50;;;;;;;0.10;0.10;;;8.30;1.00;;;;;;5045604;28;20432;-74
2023/11/16 02:28:20;;;;;;;0.10;0.10;;;8.30;1.00;;;;;;5043393;28;20037;-75
2023/11/16 02:30:47;;;;;;;0.60;0.60;;;8.40;1.00;;;;;;5042656;28;20279;-74
2023/11/16 02:33:13;;;;;;;0.22;0.22;;;8.40;1.00;;;;;;5041520;28;20030;-74
2023/11/16 02:35:39;;;;;;;3.97;0.98;;;8.40;1.00;;;;;;5047804;28;20037;-74
2023/11/16 02:38:12;;;;;;;4.82;1.83;;;8.40;1.00;;;;;;5046299;28;20033;-73
2023/11/16 02:40:39;;;;;;;0.10;0.10;;;8.40;1.00;;;;;;5040966;28;20172;-74
2023/11/16 02:43:05;;;;;;;1.67;1.10;;;8.30;1.00;;;;;;5041296;28;20489;-74
2023/11/16 02:45:35;;;;;;;0.75;0.75;;;8.30;1.00;;;;;;5040956;28;20028;-73
2023/11/16 02:48:06;;;;;;;0.22;0.22;;;8.30;1.00;;;;;;5028520;28;20034;-74
2023/11/16 02:50:33;;;;;;;0.20;0.20;;;8.20;1.00;;;;;;5041919;28;20037;-73
2023/11/16 02:52:59;;;;;;;0.10;0.10;;;8.10;1.00;;;;;;5044853;28;20485;-74
2023/11/16 02:55:26;;;;;;;0.38;0.38;;;8.10;1.00;;;;;;5042689;28;20032;-75
2023/11/16 02:57:57;;;;;;;0.20;0.20;;;8.10;1.00;;;;;;5044884;28;20370;-74
2023/11/16 03:00:24;;;;;;;0.40;0.40;;;8.20;1.00;;;;;;5045528;28;20028;-73
2023/11/16 03:02:51;;;;;;;0.43;0.43;;;8.10;1.00;;;;;;5042424;28;20033;-74
2023/11/16 03:05:21;;;;;;;0.20;0.20;;;8.10;1.00;;;;;;5028461;28;20055;-74
2023/11/16 03:07:52;;;;;;;0.17;0.17;;;8.10;1.00;;;;;;5043572;28;20041;-74
2023/11/16 03:10:18;;;;;;;0.10;0.10;;;8.00;1.00;;;;;;5041463;28;20049;-74
2023/11/16 03:12:48;;;;;;;0.10;0.10;;;8.00;1.00;;;;;;5041044;28;20033;-74
2023/11/16 03:15:14;;;;;;;0.73;0.73;;;7.90;1.00;;;;;;5042387;28;20490;-74
2023/11/16 03:17:43;;;;;;;0.20;0.10;;;7.90;1.00;;;;;;5047679;28;20037;-74
2023/11/16 03:20:16;;;;;;;6.55;1.00;;;7.90;1.00;;;;;;5041217;28;20041;-74
2023/11/16 03:22:42;;;;;;;0.15;0.15;;;7.90;1.00;;;;;;5038969;28;20036;-74
2023/11/16 03:25:09;;;;;;;0.10;0.10;;;7.90;1.00;;;;;;5041065;28;20037;-74
2023/11/16 03:27:35;;;;;;;0.50;0.50;;;7.90;1.00;;;;;;5040113;28;20075;-74
2023/11/16 03:30:03;;;;;;;1.98;0.82;;;7.90;1.00;;;;;;5049112;28;20037;-74
2023/11/16 03:32:29;;;;;;;1.35;0.85;;;7.90;1.00;;;;;;5040462;28;20030;-76
2023/11/16 03:34:55;;;;;;;0.43;0.38;;;7.90;1.00;;;;;;5043345;28;20044;-74
2023/11/16 03:37:22;;;;;;;0.57;0.57;;;8.00;1.00;;;;;;5040701;28;20048;-73
2023/11/16 03:39:48;;;;;;;0.22;0.22;;;8.00;1.00;;;;;;5044281;28;20209;-74
2023/11/16 03:42:15;;;;;;;0.10;0.10;;;8.10;1.00;;;;;;5045699;28;20462;-74
2023/11/16 03:44:42;;;;;;;0.28;0.28;;;8.20;1.00;;;;;;5043474;28;20036;-74
2023/11/16 03:47:08;;;;;;;3.20;0.68;;;8.10;1.00;;;;;;5040353;28;20037;-74
2023/11/16 03:49:34;;;;;;;0.10;0.10;;;8.10;1.00;;;;;;5043490;28;20374;-74
2023/11/16 03:52:00;;;;;;;0.10;0.10;;;8.10;1.00;;;;;;5044128;28;20029;-74
2023/11/16 03:54:26;;;;;;;0.10;0.10;;;8.10;1.00;;;;;;5044655;28;20036;-73
2023/11/16 03:56:54;;;;;;;0.10;0.10;;;8.00;1.00;;;;;;5042806;28;20044;-74
2023/11/16 03:59:21;;;;;;;0.28;0.28;;;8.00;1.00;;;;;;5044152;28;20029;-75
2023/11/16 04:01:48;;;;;;;0.10;0.10;;;8.00;1.00;;;;;;5038771;28;20439;-74
2023/11/16 04:04:15;;;;;;;0.38;0.38;;;7.90;1.00;;;;;;5025261;28;20041;-75
2023/11/16 04:06:41;;;;;;;1.70;1.17;;;7.90;1.00;;;;;;5027536;28;20049;-74
2023/11/16 04:09:09;;;;;;;0.15;0.15;;;7.90;1.00;;;;;;5042627;28;20383;-73
2023/11/16 04:11:42;;;;;;;0.43;0.43;;;7.80;1.00;;;;;;5043846;28;20037;-74
2023/11/16 04:14:09;;;;;;;0.20;0.20;;;7.80;1.00;;;;;;5040707;28;20033;-73
2023/11/16 04:16:36;;;;;;;4.30;1.02;;;7.80;11.40;;;;;;5038288;28;20052;-73
2023/11/16 04:19:04;;;;;;;0.20;0.20;;;7.80;23.80;;;;;;5045854;28;20044;-74
2023/11/16 04:21:31;;;;;;;0.30;0.30;;;7.80;30.30;;;;;;5054496;28;20041;-75
2023/11/16 04:23:59;;;;;;;4.32;0.90;;;7.80;53.30;;;;;;5028167;28;20041;-75
2023/11/16 04:26:28;;;;;;;0.77;0.63;;;7.70;46.30;;;;;;5021762;28;20052;-74
2023/11/16 04:29:00;;;;;;;0.10;0.10;;;7.60;54.10;;;;;;5041515;28;20042;-73
2023/11/16 04:31:27;;;;;;;0.10;0.10;;;7.60;69.20;;;;;;5042533;28;20044;-74
2023/11/16 04:33:54;;;;;;;0.17;0.17;;;7.60;78.10;;;;;;5044249;28;20020;-74
2023/11/16 04:36:23;;;;;;;0.80;0.73;;;7.60;76.00;;;;;;5043100;28;20151;-73
2023/11/16 04:38:55;;;;;;;0.35;0.35;;;7.60;71.60;;;;;;5027080;28;20037;-74
2023/11/16 04:41:26;;;;;;;0.20;0.20;;;7.60;89.70;;;;;;5042883;28;20037;-74
2023/11/16 04:43:54;;;;;;;0.10;0.10;;;7.60;78.70;;;;;;5028287;28;20021;-76
2023/11/16 04:46:21;;;;;;;0.30;0.30;;;7.70;57.50;;;;;;5040795;28;20044;-76
2023/11/16 04:48:48;;;;;;;0.60;0.60;;;7.70;52.90;;;;;;5041458;28;20037;-75
2023/11/16 04:51:17;;;;;;;0.50;0.50;;;7.70;54.00;;;;;;5041044;28;20025;-74
2023/11/16 04:53:50;;;;;;;0.43;0.43;;;7.70;40.80;;;;;;5039103;28;20032;-74
2023/11/16 04:56:17;;;;;;;1.35;1.02;;;7.70;31.20;;;;;;5026023;28;20048;-75
2023/11/16 04:58:45;;;;;;;0.13;0.13;;;7.70;21.70;;;;;;5038915;28;20056;-75
2023/11/16 05:01:14;;;;;;;0.10;0.10;;;7.70;20.50;;;;;;5039515;28;20033;-76
2023/11/16 05:03:44;;;;;;;1.80;0.90;;;7.70;24.20;;;;;;5046669;28;20029;-76
2023/11/16 05:06:11;;;;;;;1.00;0.50;;;7.70;15.90;;;;;;5043999;28;20401;-76
2023/11/16 05:08:37;;;;;;;0.47;0.47;;;7.70;14.80;;;;;;5040629;28;20056;-75
2023/11/16 05:11:04;;;;;;;0.10;0.10;;;7.70;12.70;;;;;;5043565;28;20045;-75
2023/11/16 05:13:31;;;;;;;0.30;0.30;;;7.80;18.10;;;;;;5040964;28;20029;-76
2023/11/16 05:15:57;;;;;;;0.70;0.70;;;7.70;21.90;;;;;;5045203;28;20032;-76
2023/11/16 05:18:23;;;;;;;0.10;0.10;;;7.70;28.60;;;;;;5039294;28;20462;-76
2023/11/16 05:20:49;;;;;;;0.20;0.20;;;7.70;45.10;;;;;;5040220;28;20044;-74
2023/11/16 05:23:17;;;;;;;0.28;0.20;;;7.70;57.40;;;;;;5041700;28;20021;-74
2023/11/16 05:25:44;;;;;;;4.95;1.05;;;7.70;68.70;;;;;;5043319;28;20474;-75
2023/11/16 05:28:11;;;;;;;0.32;0.30;;;7.70;70.10;;;;;;5030974;28;20042;-75
2023/11/16 05:30:38;;;;;;;0.47;0.47;;;7.70;94.40;;;;;;5028758;28;20037;-77
2023/11/16 05:33:04;;;;;;;0.63;0.63;;;7.70;93.70;;;;;;5042419;28;20036;-75
2023/11/16 05:35:32;;;;;;;0.20;0.20;;;7.70;94.30;;;;;;5030423;28;20051;-74
2023/11/16 05:37:58;;;;;;;1.80;1.25;;;7.70;91.20;;;;;;5047398;28;20041;-75
2023/11/16 05:40:26;;;;;;;0.10;0.10;;;7.70;90.30;;;;;;5049870;28;20030;-75
2023/11/16 05:42:53;;;;;;;0.22;0.22;;;7.70;90.00;;;;;;5042627;28;20485;-75
2023/11/16 05:45:19;;;;;;;0.38;0.38;;;7.70;95.10;;;;;;5047478;28;20029;-74
2023/11/16 05:47:45;;;;;;;0.75;0.75;;;7.70;99.80;;;;;;5042781;28;20045;-75
2023/11/16 05:50:12;;;;;;;0.20;0.20;;;7.70;99.80;;;;;;5046108;28;20378;-74
2023/11/16 05:52:38;;;;;;;0.82;0.82;;;7.70;95.20;;;;;;5041298;28;20036;-75
2023/11/16 05:55:05;;;;;;;0.90;0.68;;;7.70;99.90;;;;;;5041865;28;20033;-74
2023/11/16 05:57:31;;;;;;;0.25;0.25;;;7.70;99.90;;;;;;5043385;28;20051;-75
2023/11/16 05:59:59;;;;;;;0.38;0.28;;;7.70;99.90;;;;;;5044112;28;20030;-75
2023/11/16 06:02:26;;;;;;;1.40;0.95;;;7.70;99.90;;;;;;5043706;28;20036;-75
2023/11/16 06:04:53;;;;;;;0.77;0.75;;;7.70;99.90;;;;;;5041950;28;20061;-75
2023/11/16 06:07:19;;;;;;;0.25;0.25;;;7.70;99.90;;;;;;5029963;28;20057;-75
2023/11/16 06:09:46;;;;;;;0.10;0.10;;;7.80;99.90;;;;;;5049274;28;20035;-75
2023/11/16 06:12:15;;;;;;;0.38;0.38;;;7.70;99.90;;;;;;5041229;28;20127;-75
2023/11/16 06:14:41;;;;;;;0.10;0.10;;;7.70;99.90;;;;;;5042333;28;20040;-75
2023/11/16 06:17:08;;;;;;;1.00;0.93;;;7.80;99.90;;;;;;5043399;28;20041;-75
2023/11/16 06:19:34;;;;;;;0.75;0.35;;;7.70;99.90;;;;;;5042509;28;20431;-75
2023/11/16 06:22:00;;;;;;;0.30;0.30;;;7.80;99.90;;;;;;5047612;28;20037;-74
2023/11/16 06:24:26;;;;;;;0.40;0.40;;;7.80;99.90;;;;;;5045427;28;20037;-75
2023/11/16 06:26:53;;;;;;;0.20;0.20;;;7.80;99.90;;;;;;5043049;28;20406;-74
2023/11/16 06:29:19;;;;;;;0.20;0.20;;;7.80;99.90;;;;;;5025650;28;20204;-74
2023/11/16 06:31:45;;;;;;;0.20;0.20;;;7.80;99.90;;;;;;5046862;28;20025;-73
2023/11/16 06:34:13;;;;;;;0.38;0.38;;;7.80;99.90;;;;;;5045126;28;20025;-74
2023/11/16 06:36:41;;;;;;;0.20;0.20;;;7.80;99.90;;;;;;5041269;28;20446;-74
2023/11/16 06:39:07;;;;;;;0.30;0.20;;;7.80;99.90;;;;;;5043720;28;20040;-74
2023/11/16 06:41:35;;;;;;;0.40;0.40;;;7.70;99.90;;;;;;5036600;28;20308;-76
2023/11/16 06:44:05;;;;;;;0.98;0.60;;;7.70;99.90;;;;;;5048055;28;20347;-73
2023/11/16 06:46:33;;;;;;;2.03;0.70;;;7.70;99.90;;;;;;5045948;28;20046;-75
2023/11/16 06:49:01;;;;;;;0.22;0.22;;;7.70;99.90;;;;;;5043670;28;20020;-74
2023/11/16 06:51:28;;;;;;;0.32;0.32;;;7.70;99.90;;;;;;5029168;28;20038;-75
2023/11/16 06:53:54;;;;;;;0.10;0.10;;;7.70;99.90;;;;;;5045606;28;20449;-74
2023/11/16 06:56:22;;;;;;;0.95;0.95;;;7.70;99.90;;;;;;5025245;28;20033;-74
2023/11/16 06:58:48;;;;;;;0.15;0.15;;;7.70;99.90;;;;;;5042365;28;20481;-74
2023/11/16 07:01:15;;;;;;;0.85;0.85;;;7.70;99.90;;;;;;5049387;28;20040;-75
2023/11/16 07:03:43;;;;;;;0.40;0.40;;;7.60;99.90;;;;;;5041069;28;20033;-75
2023/11/16 07:06:09;;;;;;;0.20;0.20;;;7.70;99.90;;;;;;5043548;28;20044;-74
2023/11/16 07:08:35;;;;;;;0.30;0.30;;;7.70;99.90;;;;;;5040082;28;20172;-76
2023/11/16 07:11:01;;;;;;;0.75;0.40;;;7.70;99.90;;;;;;5043265;28;20064;-74
2023/11/16 07:13:28;;;;;;;1.67;0.73;;;7.70;99.90;;;;;;5044702;28;20036;-74
2023/11/16 07:15:56;;;;;;;1.98;1.73;;;7.70;99.90;;;;;;5040809;28;20041;-74
2023/11/16 07:18:22;;;;;;;0.40;0.40;;;7.70;99.90;;;;;;5040638;28;20366;-74
2023/11/16 07:20:48;;;;;;;0.30;0.30;;;7.80;99.90;;;;;;5039494;28;20391;-73
2023/11/16 07:23:15;;;;;;;0.30;0.30;;;7.90;99.90;;;;;;5042583;28;20382;-74
2023/11/16 07:25:43;;;;;;;0.15;0.15;;;8.00;99.90;;;;;;5048385;28;20037;-73
2023/11/16 07:28:10;;;;;;;0.30;0.30;;;8.00;99.90;;;;;;5046297;28;20044;-74
2023/11/16 07:30:38;;;;;;;0.63;0.63;;;8.10;99.90;;;;;;5027671;28;20033;-75
2023/11/16 07:33:04;;;;;;;2.47;0.63;;;8.10;96.40;;;;;;5042642;28;20059;-75
2023/11/16 07:35:33;;;;;;;2.17;1.30;;;8.20;83.00;;;;;;5046159;28;20037;-74
2023/11/16 07:38:00;;;;;;;1.75;1.65;;;8.10;62.70;;;;;;5045168;28;20040;-76
2023/11/16 07:40:27;;;;;;;0.52;0.52;;;8.20;69.00;;;;;;5044515;28;20041;-76
2023/11/16 07:42:53;;;;;;;2.95;0.60;;;8.10;62.80;;;;;;5042190;28;20030;-77
2023/11/16 07:45:19;;;;;;;0.47;0.30;;;8.20;58.60;;;;;;5041822;28;20406;-77
2023/11/16 07:47:50;;;;;;;0.35;0.35;;;8.20;63.90;;;;;;5043366;28;20036;-77
2023/11/16 07:50:18;;;;;;;0.65;0.45;;;8.20;52.80;;;;;;5040843;28;20033;-77
2023/11/16 07:52:44;;;;;;;0.47;0.47;;;8.30;45.30;;;;;;5042510;28;20029;-73
2023/11/16 07:55:19;;;;;;;0.52;0.52;;;8.30;35.70;;;;;;5040973;28;20367;-77
2023/11/16 07:57:50;;;;;;;0.70;0.63;;;8.30;33.10;;;;;;5043609;28;20038;-74
2023/11/16 08:00:31;;;;;;;1.35;0.50;;;8.30;23.30;;;;;;5043553;28;20418;-74
2023/11/16 08:05:43;;;;;;;0.43;0.43;;;8.20;21.00;;;;;;5032658;28;20038;-74
2023/11/16 08:08:14;;;;;;;0.43;0.35;;;8.20;39.70;;;;;;5024665;28;20058;-74
2023/11/16 08:10:44;;;;;;;2.20;1.08;;;8.20;50.40;;;;;;5040602;28;20041;-74
2023/11/16 08:13:11;;;;;;;1.10;0.60;;;8.20;77.00;;;;;;5041528;28;20037;-74
2023/11/16 08:15:41;;;;;;;0.45;0.45;;;8.20;64.20;;;;;;5034547;28;20036;-75
2023/11/16 08:18:08;;;;;;;1.08;0.82;;;8.20;48.70;;;;;;5032510;28;20029;-75
2023/11/16 08:20:34;;;;;;;0.40;0.40;;;8.30;40.00;;;;;;5035316;28;20033;-74
2023/11/16 08:23:01;;;;;;;3.72;1.75;;;8.30;43.80;;;;;;5029388;28;20475;-74
2023/11/16 08:25:30;;;;;;;0.95;0.73;;;8.30;33.10;;;;;;5031894;28;20029;-74
2023/11/16 08:27:57;;;;;;;0.25;0.25;;;8.30;26.60;;;;;;5042875;28;20055;-75
2023/11/16 08:30:25;;;;;;;2.17;1.10;;;8.40;25.50;;;;;;5043555;28;20470;-75
2023/11/16 08:32:51;;;;;;;0.45;0.45;;;8.40;17.00;;;;;;5044257;28;20037;-75
2023/11/16 08:35:23;;;;;;;2.25;1.60;;;8.50;4.90;;;;;;5031366;28;20041;-75
2023/11/16 08:37:49;;;;;;;2.20;0.85;;;8.50;17.20;;;;;;5031315;28;20037;-74
2023/11/16 08:40:18;;;;;;;1.00;0.77;;;8.50;2.50;;;;;;5044020;28;20029;-74
2023/11/16 08:42:47;;;;;;;1.02;0.98;;;8.60;1.00;;;;;;5031810;28;20403;-76
2023/11/16 08:45:20;;;;;;;0.38;0.38;;;8.60;7.70;;;;;;5042767;28;20037;-77
2023/11/16 08:47:48;;;;;;;3.75;3.20;;;8.60;13.00;;;;;;5035052;28;20033;-77
2023/11/16 08:50:16;;;;;;;4.78;2.78;;;8.70;2.70;;;;;;5040183;28;20036;-73
2023/11/16 08:52:48;;;;;;;1.38;1.27;;;8.70;1.00;;;;;;5038985;28;20041;-72
2023/11/16 08:55:21;;;;;;;2.22;2.03;;;8.70;1.00;;;;;;5042313;28;20033;-73
2023/11/16 08:57:48;;;;;;;3.13;2.88;;;8.70;1.00;;;;;;5028560;28;20045;-74
2023/11/16 09:00:27;;;;;;;6.07;2.90;;;8.70;1.00;;;;;;5043209;28;20036;-74
2023/11/16 09:02:58;;;;;;;1.58;1.48;;;8.70;1.00;;;;;;5041553;28;20029;-71
2023/11/16 09:05:24;;;;;;;16.95;4.45;;;8.80;1.00;;;;;;5040800;28;20030;-73
2023/11/16 09:07:54;;;;;;;3.67;3.38;;;8.80;1.00;;;;;;5040134;28;20049;-73
2023/11/16 09:10:21;;;;;;;0.95;0.93;;;8.80;1.00;;;;;;5031594;28;20045;-74
2023/11/16 09:12:49;;;;;;;2.05;1.95;;;8.70;1.00;;;;;;5048929;28;20036;-74
2023/11/16 09:15:16;;;;;;;0.93;0.93;;;8.80;1.00;;;;;;5048163;28;20493;-71
2023/11/16 09:17:47;;;;;;;0.75;0.75;;;8.80;1.00;;;;;;5033409;28;20032;-74
2023/11/16 09:20:18;;;;;;;3.38;2.03;;;8.80;1.00;;;;;;5050311;28;20394;-73
2023/11/16 09:22:44;;;;;;;;;;;8.80;1.00;;;;;;5050690;28;20489;-72
2023/11/16 09:25:19;;;;;;;15.52;2.80;;;8.90;1.00;;;;;;5046067;28;20289;-73
2023/11/16 09:27:54;;;;;;;1.35;1.15;;;9.00;1.00;;;;;;5031279;28;20041;-73
2023/11/16 09:30:22;;;;;;;0.75;0.73;;;9.00;1.00;;;;;;5042136;28;20029;-73
2023/11/16 09:32:50;;;;;;;9.07;0.90;;;9.10;1.00;;;;;;5044383;28;20021;-71
2023/11/16 09:35:21;;;;;;;1.98;1.48;;;9.20;1.00;;;;;;5045452;28;20028;-71
2023/11/16 09:37:55;;;;;;;2.90;1.65;;;9.20;1.00;;;;;;5035659;28;20049;-72
2023/11/16 09:40:28;;;;;;;0.68;0.68;;;9.30;1.00;;;;;;5033092;28;20041;-72
2023/11/16 09:43:00;;;;;;;1.63;1.50;;;9.40;1.00;;;;;;5025985;28;20470;-72
2023/11/16 09:45:27;;;;;;;1.33;0.82;;;9.30;1.00;;;;;;5046664;28;20482;-72
2023/11/16 09:48:04;;;;;;;0.80;0.63;;;9.40;1.00;;;;;;5048577;28;20095;-72
2023/11/16 09:50:31;;;;;;;0.30;0.30;;;9.40;1.00;;;;;;5048511;28;20059;-72
2023/11/16 09:53:00;;;;;;;3.92;2.55;;;9.30;1.00;;;;;;5032814;28;20997;-72
2023/11/16 09:55:33;;;;;;;31.33;16.50;;;9.40;1.00;;;;;;5043214;28;20036;-73
2023/11/16 09:58:08;;;;;;;13.98;12.57;;;9.40;1.00;;;;;;5032251;28;20048;-74
2023/11/16 10:00:36;;;;;;;11.80;7.97;;;9.40;1.00;;;;;;5041355;28;20360;-74
2023/11/16 10:03:06;;;;;;;3.78;3.47;;;9.50;1.00;;;;;;5042022;28;20371;-72
2023/11/16 10:05:36;;;;;;;3.03;2.67;;;9.40;1.00;;;;;;5050032;28;20029;-72
2023/11/16 10:08:08;;;;;;;2.38;2.17;;;9.40;1.00;;;;;;5043616;28;20052;-72
2023/11/16 10:10:37;;;;;;;10.65;4.03;;;9.40;1.00;;;;;;5045880;28;20045;-73
2023/11/16 10:13:04;;;;;;;1.30;1.20;;;9.40;1.00;;;;;;5029274;28;20060;-72
2023/11/16 10:15:31;;;;;;;0.52;0.52;;;9.30;1.00;;;;;;5046772;28;20045;-72
2023/11/16 10:18:01;;;;;;;0.65;0.57;;;9.30;1.00;;;;;;5050341;28;20029;-72
2023/11/16 10:20:29;;;;;;;3.17;0.85;;;9.20;1.00;;;;;;5047970;28;20021;-72
2023/11/16 10:22:55;;;;;;;2.15;0.77;;;9.30;1.00;;;;;;5044936;28;20470;-72
2023/11/16 10:25:24;;;;;;;0.52;0.52;;;9.30;1.00;;;;;;5050176;28;20036;-72
2023/11/16 10:27:51;;;;;;;0.68;0.68;;;9.30;1.00;;;;;;5034000;28;20040;-72
2023/11/16 10:30:18;;;;;;;0.98;0.98;;;9.20;1.00;;;;;;5049658;28;20025;-73
2023/11/16 10:32:49;;;;;;;10.90;3.40;;;9.20;1.00;;;;;;5030159;28;20044;-75
2023/11/16 10:35:17;;;;;;;1.15;1.05;;;9.20;1.00;;;;;;5045442;28;20458;-73
2023/11/16 10:37:44;;;;;;;1.85;1.73;;;9.20;1.00;;;;;;5042516;28;20049;-76
2023/11/16 10:40:12;;;;;;;16.20;1.98;;;9.20;1.00;;;;;;5043477;28;20386;-73
2023/11/16 10:42:42;;;;;;;0.82;0.82;;;9.20;1.00;;;;;;5029202;28;20460;-74
2023/11/16 10:45:12;;;;;;;2.42;1.02;;;9.10;1.00;;;;;;5043842;28;20034;-74
2023/11/16 10:47:44;;;;;;;0.83;0.73;;;9.10;1.00;;;;;;5044976;28;20463;-73
2023/11/16 10:50:15;;;;;;;3.83;3.25;;;9.10;1.00;;;;;;5042163;28;20268;-74
2023/11/16 10:52:47;;;;;;;16.98;10.98;;;9.10;1.00;;;;;;5042664;28;20033;-73
2023/11/16 10:55:21;;;;;;;20.42;17.92;;;9.10;1.00;;;;;;5045087;28;20033;-73
2023/11/16 10:57:59;;;;;;;8.68;7.03;;;9.20;1.00;;;;;;5041845;28;20036;-74
2023/11/16 11:00:26;;;;;;;2.80;2.60;;;9.10;1.00;;;;;;5042421;28;20491;-73
2023/11/16 11:02:55;;;;;;;1.98;1.88;;;9.10;1.00;;;;;;5039177;28;20025;-73
2023/11/16 11:05:22;;;;;;;1.33;0.90;;;9.10;1.00;;;;;;5037323;28;20049;-73
2023/11/16 11:07:55;;;;;;;0.20;0.20;;;9.10;1.00;;;;;;5028647;28;20041;-73
2023/11/16 11:10:29;;;;;;;0.20;0.20;;;9.10;1.00;;;;;;5031988;28;20470;-72
2023/11/16 11:13:00;;;;;;;1.35;1.05;;;9.10;1.00;;;;;;5038515;28;20048;-73
2023/11/16 11:15:31;;;;;;;0.55;0.55;;;9.10;1.00;;;;;;5026922;28;20045;-73
2023/11/16 11:18:00;;;;;;;0.40;0.40;;;9.10;1.00;;;;;;5038318;28;20040;-73
2023/11/16 11:20:40;;;;;;;0.22;0.22;;;9.10;1.00;;;;;;5025120;28;20390;-72
2023/11/16 11:23:13;;;;;;;0.55;0.55;;;9.10;1.00;;;;;;5038982;28;20057;-72
2023/11/16 11:25:41;;;;;;;6.95;1.67;;;9.20;1.00;;;;;;5041485;28;20037;-72
2023/11/16 11:28:09;;;;;;;1.10;1.02;;;9.20;1.00;;;;;;5038054;28;20048;-73
2023/11/16 11:30:37;;;;;;;0.47;0.47;;;9.30;1.00;;;;;;5045737;28;20033;-73
2023/11/16 11:33:14;;;;;;;12.95;1.17;;;9.30;1.00;;;;;;5044122;28;20044;-73
2023/11/16 11:35:52;;;;;;;2.95;2.03;;;9.40;1.00;;;;;;5044669;28;20486;-73
2023/11/16 11:38:26;;;;;;;2.42;0.98;;;9.40;1.00;;;;;;5043613;28;20036;-73
2023/11/16 11:41:06;;;;;;;1.40;1.30;;;9.40;1.00;;;;;;5030532;28;20044;-73
2023/11/16 11:43:34;;;;;;;0.60;0.60;;;9.40;1.00;;;;;;5037775;28;20032;-72
2023/11/16 11:46:01;;;;;;;0.30;0.30;;;9.30;1.00;;;;;;5026203;28;20048;-73
2023/11/16 11:48:27;;;;;;;2.85;1.98;;;9.30;1.00;;;;;;5044577;28;20446;-71
2023/11/16 11:50:57;;;;;;;0.52;0.52;;;9.30;1.00;;;;;;5037841;28;20467;-71
2023/11/16 11:53:29;;;;;;;0.28;0.28;;;9.30;1.00;;;;;;5039109;28;20493;-72
2023/11/16 11:55:57;;;;;;;7.93;0.73;;;9.30;1.00;;;;;;5040822;28;20032;-71
2023/11/16 11:58:26;;;;;;;2.17;1.15;;;9.30;1.00;;;;;;5022957;28;20025;-71
2023/11/16 12:00:55;;;;;;;0.75;0.68;;;9.30;1.00;;;;;;5039149;28;20037;-71
2023/11/16 12:03:21;;;;;;;0.43;0.43;;;9.30;1.00;;;;;;5046762;28;20033;-72
2023/11/16 12:05:58;;;;;;;1.38;0.82;;;9.20;1.00;;;;;;5026117;28;20034;-72
2023/11/16 12:08:44;;;;;;;0.45;0.45;;;9.10;1.00;;;;;;5040979;28;20044;-72
2023/11/16 12:11:12;;;;;;;0.20;0.20;;;9.00;1.00;;;;;;5040374;28;20054;-72
2023/11/16 12:13:40;;;;;;;0.88;0.88;;;9.00;1.00;;;;;;5027291;28;20068;-72
2023/11/16 12:16:07;;;;;;;1.23;1.13;;;8.90;1.00;;;;;;5045774;28;20045;-73
2023/11/16 12:18:41;;;;;;;0.55;0.55;;;8.90;8.10;;;;;;5025084;28;20352;-73
2023/11/16 12:21:18;;;;;;;0.45;0.45;;;8.80;86.50;;;;;;5038443;28;20030;-73
2023/11/16 12:23:48;;;;;;;1.33;1.23;;;8.70;99.90;;;;;;5039813;28;20029;-73
2023/11/16 12:26:29;;;;;;;0.77;0.77;;;8.60;99.90;;;;;;5047773;28;20374;-73
2023/11/16 12:28:56;;;;;;;1.48;1.38;;;8.60;99.90;;;;;;5042716;28;20356;-75
2023/11/16 12:31:26;;;;;;;12.77;1.75;;;8.60;99.90;;;;;;5039857;28;20380;-73
2023/11/16 12:33:55;;;;;;;0.57;0.57;;;8.60;99.90;;;;;;5039146;28;20092;-74
2023/11/16 12:36:24;;;;;;;1.63;0.50;;;8.60;99.90;;;;;;5040531;28;20036;-74
2023/11/16 12:38:53;;;;;;;0.20;0.20;;;8.50;99.90;;;;;;5044977;28;20044;-74
2023/11/16 12:41:20;;;;;;;0.63;0.63;;;8.40;99.90;;;;;;5039558;28;20029;-74
2023/11/16 12:43:46;;;;;;;4.18;2.33;;;8.40;99.90;;;;;;5039429;28;20033;-73
2023/11/16 12:46:12;;;;;;;6.32;4.47;;;8.30;99.90;;;;;;5042561;28;20035;-73
2023/11/16 12:48:39;;;;;;;1.65;1.45;;;8.30;99.90;;;;;;5039106;28;20037;-74
2023/11/16 12:51:06;;;;;;;0.50;0.50;;;8.40;99.90;;;;;;5040375;28;20371;-73
2023/11/16 12:53:39;;;;;;;0.43;0.25;;;8.30;99.90;;;;;;5030155;28;20037;-74
2023/11/16 12:56:06;;;;;;;0.47;0.30;;;8.30;99.90;;;;;;5033486;28;20117;-73
2023/11/16 12:58:33;;;;;;;13.13;1.25;;;8.30;99.90;;;;;;5041622;28;20034;-73
2023/11/16 13:01:00;;;;;;;1.60;1.50;;;8.20;99.90;;;;;;5038942;28;20038;-73
2023/11/16 13:03:30;;;;;;;0.88;0.88;;;8.20;99.90;;;;;;5040270;28;20040;-73
2023/11/16 13:06:00;;;;;;;2.83;0.90;;;8.30;99.90;;;;;;5041052;28;20130;-73
2023/11/16 13:08:28;;;;;;;0.30;0.30;;;8.30;99.90;;;;;;5040178;28;20394;-73
2023/11/16 13:10:54;;;;;;;1.33;1.23;;;8.30;99.90;;;;;;5040286;28;20367;-73